037  
UXUS97 KREV 211559  
SRGREV  
 
SOARING FORECAST  
NATIONAL WEATHER SERVICE - RENO NV  
700 AM PST TUE NOV 21 2017  
 
THIS SOARING FORECAST IS FOR THE EASTERN SIERRA AND WESTERN NEVADA  
WITH SPECIFIC INDICES FOR THE GREATER RENO AREA.  
 
THIS FORECAST IS PREPARED DAILY BY 700 AM AND IS NOT UPDATED.  
 
FOR CURRENT FLIGHT CONDITIONS...FORECASTS...AND ADVISORIES...ACCESS  
YOUR LOCAL BRIEFING OUTLET OR FLIGHT SERVICE STATION.  
 
*******************************************************************  
FORECASTED LOCAL INDICES FOR RENO: TODAY YESTERDAY  
FORECASTED MAX TEMP AT RENO (DEG F)..... 60 60  
FORECASTED TRIGGER TEMPERATURE (DEG F).. 63 63  
EXCEEDED YESTERDAY BY  
FORECASTED MAXIMUM ALTITUDE (FT MSL).... 8100 8100  
FORECASTED SOARING INDEX (FPM).......... 243 243  
FORECASTED K-INDEX.........VALID 18Z.... 25 18  
FORECASTED K-INDEX.........VALID 00Z.... 25 21  
FORECASTED LIFTED INDEX....VALID 18Z.... 7 4  
FORECASTED LIFTED INDEX....VALID 00Z.... 5 4  
 
AFTERNOON WINDS ALOFT FORECAST  
MSL (FT) WIND/TEMP  
9000 2318/+08  
10000 2321/+05  
12000 2526/+01  
14000 2529/-01  
16000 2533/-04  
18000 2544/-07  
24000 2545/-19  
30000 2552/-35  
34000 2659/-45  
39000 2558/-58  
 
SLIDE MOUNTAIN DATA:  
DATE TIME TEMP DEWPT RH WIND (MPH)  
(F) (F) | DIR SPEED GUST  
2017-11-21 05:50 40 32 66 | 286 3 9  
2017-11-21 05:30 40 32 67 | 298 5 8  
2017-11-21 05:20 40 32 67 | 274 5 9  
2017-11-21 05:00 39 32 66 | 286 3 8  
 
SIERRA CREST 8700 FT DATA:  
DATE TIME TEMP RH WIND  
DIR SPEED GUST  
2017-11-21 0545 43 59 000 0 0  
2017-11-21 0530 42 62 000 0 0  
2017-11-21 0515 42 62 294 0 2  
2017-11-21 0500 42 64 297 2 5  
 
RENO TAF FORECAST:  
KRNO 211120Z 2112/2212 VRB04KT P6SM SCT080 BKN140  
FM212000 17007KT P6SM SCT120 BKN200  
FM220400 VRB04KT P6SM BKN200  
 
CARSON CITY TAF FORECAST:  
KCXP 211120Z 2112/2212 VRB04KT P6SM SCT080 BKN140  
FM212000 10008KT P6SM SCT050 SCT120 BKN200  
FM220200 VRB04KT P6SM FEW120 BKN200  
 
OUTLOOK FOR THE RENO-CARSON CITY-MINDEN AREA:   
WEDNESDAY
 
PARTLY CLOUDY. HIGHS 66 TO 71. LIGHT WINDS.  
 
SUNRISE AND SUNSET  
NOVEMBER 21 2017......SUNRISE 650 AM PST SUNSET 440 PM PST  
NOVEMBER 22 2017......SUNRISE 651 AM PST SUNSET 439 PM PST  
 
CLICK HERE TO GO TO PREVIOUS BULLETINS.

The Nexlab NV Page
The Nexlab CA Page Main Text Page